sensor_id;sensor_type;location;lat;lon;timestamp;temperature;humidity
40702;DHT22;26387;50.114;8.662;2022-10-18T00:02:13;20.40;99.80
40702;DHT22;26387;50.114;8.662;2022-10-18T00:04:39;20.40;99.80
40702;DHT22;26387;50.114;8.662;2022-10-18T00:07:05;20.40;99.70
40702;DHT22;26387;50.114;8.662;2022-10-18T00:09:30;20.40;99.80
40702;DHT22;26387;50.114;8.662;2022-10-18T00:11:56;20.40;99.80
40702;DHT22;26387;50.114;8.662;2022-10-18T00:14:22;20.40;99.70
40702;DHT22;26387;50.114;8.662;2022-10-18T00:16:48;20.40;99.70
40702;DHT22;26387;50.114;8.662;2022-10-18T00:19:13;20.40;99.60
40702;DHT22;26387;50.114;8.662;2022-10-18T00:21:39;20.40;99.60
40702;DHT22;26387;50.114;8.662;2022-10-18T00:24:05;20.40;99.60
40702;DHT22;26387;50.114;8.662;2022-10-18T00:26:31;20.30;99.60
40702;DHT22;26387;50.114;8.662;2022-10-18T00:28:59;20.30;99.60
40702;DHT22;26387;50.114;8.662;2022-10-18T00:31:34;20.30;99.70
40702;DHT22;26387;50.114;8.662;2022-10-18T00:34:03;20.40;99.80
40702;DHT22;26387;50.114;8.662;2022-10-18T00:36:30;20.40;99.90
40702;DHT22;26387;50.114;8.662;2022-10-18T00:41:27;20.30;99.90
40702;DHT22;26387;50.114;8.662;2022-10-18T00:43:58;20.30;99.90
40702;DHT22;26387;50.114;8.662;2022-10-18T00:46:29;20.30;99.90
40702;DHT22;26387;50.114;8.662;2022-10-18T00:48:56;20.30;99.90
40702;DHT22;26387;50.114;8.662;2022-10-18T00:51:26;20.30;99.90
40702;DHT22;26387;50.114;8.662;2022-10-18T00:53:53;20.20;99.90
40702;DHT22;26387;50.114;8.662;2022-10-18T00:56:19;20.10;99.90
40702;DHT22;26387;50.114;8.662;2022-10-18T00:58:46;20.10;99.90
40702;DHT22;26387;50.114;8.662;2022-10-18T01:01:12;20.10;99.90
40702;DHT22;26387;50.114;8.662;2022-10-18T01:03:39;20.10;99.90
40702;DHT22;26387;50.114;8.662;2022-10-18T01:06:06;20.10;99.90
40702;DHT22;26387;50.114;8.662;2022-10-18T01:16:59;20.10;99.90
40702;DHT22;26387;50.114;8.662;2022-10-18T01:22:36;20.00;99.90
40702;DHT22;26387;50.114;8.662;2022-10-18T01:25:15;20.00;99.90
40702;DHT22;26387;50.114;8.662;2022-10-18T01:27:59;20.00;99.90
40702;DHT22;26387;50.114;8.662;2022-10-18T01:30:39;20.00;99.90
40702;DHT22;26387;50.114;8.662;2022-10-18T01:33:25;19.90;99.90
40702;DHT22;26387;50.114;8.662;2022-10-18T01:35:58;19.80;99.90
40702;DHT22;26387;50.114;8.662;2022-10-18T01:38:25;19.80;99.90
40702;DHT22;26387;50.114;8.662;2022-10-18T01:40:51;19.80;99.90
40702;DHT22;26387;50.114;8.662;2022-10-18T01:43:20;19.90;99.90
40702;DHT22;26387;50.114;8.662;2022-10-18T01:45:46;19.90;99.90
40702;DHT22;26387;50.114;8.662;2022-10-18T01:48:13;19.80;99.90
40702;DHT22;26387;50.114;8.662;2022-10-18T01:50:38;19.80;99.90
40702;DHT22;26387;50.114;8.662;2022-10-18T01:53:04;19.80;99.90
40702;DHT22;26387;50.114;8.662;2022-10-18T01:55:42;19.80;99.90
40702;DHT22;26387;50.114;8.662;2022-10-18T01:58:20;19.80;99.90
40702;DHT22;26387;50.114;8.662;2022-10-18T02:00:51;19.80;99.90
40702;DHT22;26387;50.114;8.662;2022-10-18T02:03:24;19.80;99.90
40702;DHT22;26387;50.114;8.662;2022-10-18T02:06:19;19.80;99.90
40702;DHT22;26387;50.114;8.662;2022-10-18T02:08:54;19.80;99.90
40702;DHT22;26387;50.114;8.662;2022-10-18T02:11:22;19.80;99.90
40702;DHT22;26387;50.114;8.662;2022-10-18T02:13:54;19.80;99.90
40702;DHT22;26387;50.114;8.662;2022-10-18T02:16:34;19.80;99.90
40702;DHT22;26387;50.114;8.662;2022-10-18T02:19:14;19.80;99.90
40702;DHT22;26387;50.114;8.662;2022-10-18T02:21:44;19.80;99.90
40702;DHT22;26387;50.114;8.662;2022-10-18T02:24:13;19.80;99.90
40702;DHT22;26387;50.114;8.662;2022-10-18T02:26:39;19.80;99.90
40702;DHT22;26387;50.114;8.662;2022-10-18T02:29:05;19.80;99.90
40702;DHT22;26387;50.114;8.662;2022-10-18T02:31:51;19.80;99.90
40702;DHT22;26387;50.114;8.662;2022-10-18T02:34:23;19.70;99.90
40702;DHT22;26387;50.114;8.662;2022-10-18T02:37:01;19.80;99.90
40702;DHT22;26387;50.114;8.662;2022-10-18T02:39:33;19.80;99.90
40702;DHT22;26387;50.114;8.662;2022-10-18T02:41:59;19.80;99.90
40702;DHT22;26387;50.114;8.662;2022-10-18T02:44:25;19.70;99.90
40702;DHT22;26387;50.114;8.662;2022-10-18T02:46:51;19.70;99.90
40702;DHT22;26387;50.114;8.662;2022-10-18T02:49:17;19.70;99.90
40702;DHT22;26387;50.114;8.662;2022-10-18T02:51:42;19.70;99.90
40702;DHT22;26387;50.114;8.662;2022-10-18T02:54:08;19.70;99.90
40702;DHT22;26387;50.114;8.662;2022-10-18T02:56:34;19.70;99.90
40702;DHT22;26387;50.114;8.662;2022-10-18T02:59:00;19.70;99.90
40702;DHT22;26387;50.114;8.662;2022-10-18T03:01:26;19.60;99.90
40702;DHT22;26387;50.114;8.662;2022-10-18T03:03:52;19.70;99.90
40702;DHT22;26387;50.114;8.662;2022-10-18T03:06:17;19.60;99.90
40702;DHT22;26387;50.114;8.662;2022-10-18T03:08:43;19.60;99.90
40702;DHT22;26387;50.114;8.662;2022-10-18T03:11:09;19.70;99.90
40702;DHT22;26387;50.114;8.662;2022-10-18T03:13:35;19.60;99.90
40702;DHT22;26387;50.114;8.662;2022-10-18T03:16:01;19.60;99.90
40702;DHT22;26387;50.114;8.662;2022-10-18T03:18:26;19.60;99.90
40702;DHT22;26387;50.114;8.662;2022-10-18T03:20:52;19.60;99.90
40702;DHT22;26387;50.114;8.662;2022-10-18T03:23:17;19.50;99.90
40702;DHT22;26387;50.114;8.662;2022-10-18T03:25:43;19.40;99.90
40702;DHT22;26387;50.114;8.662;2022-10-18T03:28:09;19.40;99.90
40702;DHT22;26387;50.114;8.662;2022-10-18T03:30:35;19.40;99.90
40702;DHT22;26387;50.114;8.662;2022-10-18T03:33:00;19.40;99.90
40702;DHT22;26387;50.114;8.662;2022-10-18T03:35:26;19.40;99.90
40702;DHT22;26387;50.114;8.662;2022-10-18T03:37:51;19.30;99.90
40702;DHT22;26387;50.114;8.662;2022-10-18T03:40:17;19.30;99.90
40702;DHT22;26387;50.114;8.662;2022-10-18T03:42:43;19.30;99.90
40702;DHT22;26387;50.114;8.662;2022-10-18T03:45:08;19.30;99.90
40702;DHT22;26387;50.114;8.662;2022-10-18T03:47:34;19.20;99.90
40702;DHT22;26387;50.114;8.662;2022-10-18T03:50:00;19.20;99.90
40702;DHT22;26387;50.114;8.662;2022-10-18T03:52:25;19.20;99.90
40702;DHT22;26387;50.114;8.662;2022-10-18T03:54:51;19.20;99.90
40702;DHT22;26387;50.114;8.662;2022-10-18T03:57:16;19.20;99.90
40702;DHT22;26387;50.114;8.662;2022-10-18T03:59:42;19.30;99.90
40702;DHT22;26387;50.114;8.662;2022-10-18T04:02:08;19.30;99.90
40702;DHT22;26387;50.114;8.662;2022-10-18T04:04:33;19.20;99.90
40702;DHT22;26387;50.114;8.662;2022-10-18T04:06:59;19.10;99.90
40702;DHT22;26387;50.114;8.662;2022-10-18T04:09:24;19.10;99.90
40702;DHT22;26387;50.114;8.662;2022-10-18T04:11:50;19.10;99.90
40702;DHT22;26387;50.114;8.662;2022-10-18T04:14:16;19.10;99.90
40702;DHT22;26387;50.114;8.662;2022-10-18T04:16:41;19.10;99.90
40702;DHT22;26387;50.114;8.662;2022-10-18T04:19:07;19.10;99.90
40702;DHT22;26387;50.114;8.662;2022-10-18T04:21:32;19.10;99.90
40702;DHT22;26387;50.114;8.662;2022-10-18T04:23:58;19.10;99.90
40702;DHT22;26387;50.114;8.662;2022-10-18T04:26:24;19.00;99.90
40702;DHT22;26387;50.114;8.662;2022-10-18T04:28:49;19.00;99.90
40702;DHT22;26387;50.114;8.662;2022-10-18T04:31:15;19.00;99.90
40702;DHT22;26387;50.114;8.662;2022-10-18T04:33:40;18.90;99.90
40702;DHT22;26387;50.114;8.662;2022-10-18T04:36:06;18.80;99.90
40702;DHT22;26387;50.114;8.662;2022-10-18T04:38:32;18.80;99.90
40702;DHT22;26387;50.114;8.662;2022-10-18T04:40:57;18.80;99.90
40702;DHT22;26387;50.114;8.662;2022-10-18T04:43:23;18.80;99.90
40702;DHT22;26387;50.114;8.662;2022-10-18T04:45:49;18.80;99.90
40702;DHT22;26387;50.114;8.662;2022-10-18T04:48:16;18.80;99.90
40702;DHT22;26387;50.114;8.662;2022-10-18T04:50:42;18.90;99.90
40702;DHT22;26387;50.114;8.662;2022-10-18T04:53:07;18.90;99.90
40702;DHT22;26387;50.114;8.662;2022-10-18T04:55:33;18.90;99.90
40702;DHT22;26387;50.114;8.662;2022-10-18T04:57:59;18.90;99.90
40702;DHT22;26387;50.114;8.662;2022-10-18T05:00:24;19.00;99.90
40702;DHT22;26387;50.114;8.662;2022-10-18T05:02:57;19.00;99.90
40702;DHT22;26387;50.114;8.662;2022-10-18T05:05:23;18.90;99.90
40702;DHT22;26387;50.114;8.662;2022-10-18T05:07:49;19.00;99.90
40702;DHT22;26387;50.114;8.662;2022-10-18T05:10:14;19.00;99.90
40702;DHT22;26387;50.114;8.662;2022-10-18T05:12:40;18.90;99.90
40702;DHT22;26387;50.114;8.662;2022-10-18T05:15:08;19.00;99.90
40702;DHT22;26387;50.114;8.662;2022-10-18T05:17:34;19.00;99.90
40702;DHT22;26387;50.114;8.662;2022-10-18T05:19:59;18.90;99.90
40702;DHT22;26387;50.114;8.662;2022-10-18T05:22:25;18.90;99.90
40702;DHT22;26387;50.114;8.662;2022-10-18T05:24:50;18.90;99.90
40702;DHT22;26387;50.114;8.662;2022-10-18T05:27:16;18.90;99.90
40702;DHT22;26387;50.114;8.662;2022-10-18T05:29:42;18.90;99.90
40702;DHT22;26387;50.114;8.662;2022-10-18T05:32:07;19.00;99.90
40702;DHT22;26387;50.114;8.662;2022-10-18T05:34:33;19.00;99.90
40702;DHT22;26387;50.114;8.662;2022-10-18T05:36:59;18.90;99.90
40702;DHT22;26387;50.114;8.662;2022-10-18T05:39:25;18.90;99.90
40702;DHT22;26387;50.114;8.662;2022-10-18T05:41:50;19.00;99.90
40702;DHT22;26387;50.114;8.662;2022-10-18T05:44:16;18.90;99.90
40702;DHT22;26387;50.114;8.662;2022-10-18T05:46:42;19.00;99.90
40702;DHT22;26387;50.114;8.662;2022-10-18T05:49:10;18.90;99.90
40702;DHT22;26387;50.114;8.662;2022-10-18T05:51:35;19.00;99.90
40702;DHT22;26387;50.114;8.662;2022-10-18T05:54:01;18.90;99.90
40702;DHT22;26387;50.114;8.662;2022-10-18T05:56:27;18.90;99.90
40702;DHT22;26387;50.114;8.662;2022-10-18T05:58:52;18.90;99.90
40702;DHT22;26387;50.114;8.662;2022-10-18T06:01:18;18.90;99.90
40702;DHT22;26387;50.114;8.662;2022-10-18T06:03:44;18.90;99.90
40702;DHT22;26387;50.114;8.662;2022-10-18T06:06:10;18.80;99.90
40702;DHT22;26387;50.114;8.662;2022-10-18T06:08:38;18.80;99.90
40702;DHT22;26387;50.114;8.662;2022-10-18T06:11:14;18.90;99.90
40702;DHT22;26387;50.114;8.662;2022-10-18T06:13:46;18.90;99.90
40702;DHT22;26387;50.114;8.662;2022-10-18T06:16:13;18.70;99.90
40702;DHT22;26387;50.114;8.662;2022-10-18T06:18:40;18.70;99.90
40702;DHT22;26387;50.114;8.662;2022-10-18T06:21:06;18.70;99.90
40702;DHT22;26387;50.114;8.662;2022-10-18T06:23:32;18.70;99.90
40702;DHT22;26387;50.114;8.662;2022-10-18T06:26:03;18.80;99.90
40702;DHT22;26387;50.114;8.662;2022-10-18T06:28:29;18.80;99.90
40702;DHT22;26387;50.114;8.662;2022-10-18T06:30:56;18.90;99.90
40702;DHT22;26387;50.114;8.662;2022-10-18T06:33:22;18.80;99.90
40702;DHT22;26387;50.114;8.662;2022-10-18T06:35:58;18.80;99.90
40702;DHT22;26387;50.114;8.662;2022-10-18T06:38:25;18.80;99.90
40702;DHT22;26387;50.114;8.662;2022-10-18T06:40:52;18.80;99.90
40702;DHT22;26387;50.114;8.662;2022-10-18T06:43:17;18.90;99.90
40702;DHT22;26387;50.114;8.662;2022-10-18T06:45:43;18.90;99.90
40702;DHT22;26387;50.114;8.662;2022-10-18T06:48:09;18.90;99.90
40702;DHT22;26387;50.114;8.662;2022-10-18T06:50:34;18.80;99.90
40702;DHT22;26387;50.114;8.662;2022-10-18T06:53:00;18.90;99.90
40702;DHT22;26387;50.114;8.662;2022-10-18T06:55:26;18.90;99.90
40702;DHT22;26387;50.114;8.662;2022-10-18T06:57:52;18.90;99.90
40702;DHT22;26387;50.114;8.662;2022-10-18T07:00:18;18.90;99.90
40702;DHT22;26387;50.114;8.662;2022-10-18T07:02:43;18.80;99.90
40702;DHT22;26387;50.114;8.662;2022-10-18T07:05:09;18.80;99.90
40702;DHT22;26387;50.114;8.662;2022-10-18T07:07:36;18.80;99.90
40702;DHT22;26387;50.114;8.662;2022-10-18T07:10:02;18.80;99.90
40702;DHT22;26387;50.114;8.662;2022-10-18T07:12:28;18.80;99.90
40702;DHT22;26387;50.114;8.662;2022-10-18T07:14:54;18.90;99.90
40702;DHT22;26387;50.114;8.662;2022-10-18T07:17:20;18.90;99.90
40702;DHT22;26387;50.114;8.662;2022-10-18T07:19:46;18.90;99.90
40702;DHT22;26387;50.114;8.662;2022-10-18T07:22:11;19.00;99.90
40702;DHT22;26387;50.114;8.662;2022-10-18T07:24:37;19.00;99.90
40702;DHT22;26387;50.114;8.662;2022-10-18T07:27:02;19.00;99.90
40702;DHT22;26387;50.114;8.662;2022-10-18T07:29:28;19.10;99.90
40702;DHT22;26387;50.114;8.662;2022-10-18T07:31:54;19.10;99.90
40702;DHT22;26387;50.114;8.662;2022-10-18T07:34:19;19.20;99.90
40702;DHT22;26387;50.114;8.662;2022-10-18T07:36:45;19.20;99.90
40702;DHT22;26387;50.114;8.662;2022-10-18T07:39:11;19.20;99.90
40702;DHT22;26387;50.114;8.662;2022-10-18T07:41:36;19.20;99.90
40702;DHT22;26387;50.114;8.662;2022-10-18T07:44:03;19.30;99.90
40702;DHT22;26387;50.114;8.662;2022-10-18T07:46:28;19.30;99.90
40702;DHT22;26387;50.114;8.662;2022-10-18T07:48:54;19.30;99.90
40702;DHT22;26387;50.114;8.662;2022-10-18T07:51:20;19.40;99.90
40702;DHT22;26387;50.114;8.662;2022-10-18T07:53:46;19.40;99.90
40702;DHT22;26387;50.114;8.662;2022-10-18T07:56:14;19.50;99.90
40702;DHT22;26387;50.114;8.662;2022-10-18T07:58:45;19.60;99.90
40702;DHT22;26387;50.114;8.662;2022-10-18T08:01:11;19.60;99.90
40702;DHT22;26387;50.114;8.662;2022-10-18T08:03:37;19.70;99.90
40702;DHT22;26387;50.114;8.662;2022-10-18T08:06:05;19.70;99.90
40702;DHT22;26387;50.114;8.662;2022-10-18T08:08:33;19.80;99.90
40702;DHT22;26387;50.114;8.662;2022-10-18T08:11:07;19.80;99.90
40702;DHT22;26387;50.114;8.662;2022-10-18T08:13:33;19.90;99.90
40702;DHT22;26387;50.114;8.662;2022-10-18T08:16:04;20.00;99.90
40702;DHT22;26387;50.114;8.662;2022-10-18T08:18:30;20.00;99.90
40702;DHT22;26387;50.114;8.662;2022-10-18T08:20:57;20.10;99.90
40702;DHT22;26387;50.114;8.662;2022-10-18T08:23:23;20.20;99.90
40702;DHT22;26387;50.114;8.662;2022-10-18T08:25:49;20.30;99.90
40702;DHT22;26387;50.114;8.662;2022-10-18T08:28:14;20.40;99.90
40702;DHT22;26387;50.114;8.662;2022-10-18T08:30:41;20.40;99.90
40702;DHT22;26387;50.114;8.662;2022-10-18T08:33:07;20.40;99.90
40702;DHT22;26387;50.114;8.662;2022-10-18T08:35:33;20.40;99.90
40702;DHT22;26387;50.114;8.662;2022-10-18T08:37:58;20.30;99.90
40702;DHT22;26387;50.114;8.662;2022-10-18T08:40:24;20.30;99.90
40702;DHT22;26387;50.114;8.662;2022-10-18T08:43:17;20.30;99.90
40702;DHT22;26387;50.114;8.662;2022-10-18T08:45:45;20.30;99.90
40702;DHT22;26387;50.114;8.662;2022-10-18T08:48:19;20.30;99.90
40702;DHT22;26387;50.114;8.662;2022-10-18T08:50:46;20.30;99.90
40702;DHT22;26387;50.114;8.662;2022-10-18T08:53:14;20.20;99.90
40702;DHT22;26387;50.114;8.662;2022-10-18T08:55:45;20.20;99.90
40702;DHT22;26387;50.114;8.662;2022-10-18T08:58:24;20.20;99.90
40702;DHT22;26387;50.114;8.662;2022-10-18T09:03:39;20.20;99.90
40702;DHT22;26387;50.114;8.662;2022-10-18T09:06:33;20.30;99.90
40702;DHT22;26387;50.114;8.662;2022-10-18T09:25:23;20.80;99.90
40702;DHT22;26387;50.114;8.662;2022-10-18T09:30:34;21.00;99.90
40702;DHT22;26387;50.114;8.662;2022-10-18T09:35:56;21.10;99.60
40702;DHT22;26387;50.114;8.662;2022-10-18T09:38:30;21.20;99.40
40702;DHT22;26387;50.114;8.662;2022-10-18T09:41:17;21.30;99.50
40702;DHT22;26387;50.114;8.662;2022-10-18T09:43:51;21.30;99.00
40702;DHT22;26387;50.114;8.662;2022-10-18T09:46:19;21.30;98.90
40702;DHT22;26387;50.114;8.662;2022-10-18T09:48:50;21.20;99.30
40702;DHT22;26387;50.114;8.662;2022-10-18T09:51:28;21.30;99.20
40702;DHT22;26387;50.114;8.662;2022-10-18T09:59:33;21.20;99.70
40702;DHT22;26387;50.114;8.662;2022-10-18T10:01:59;21.20;99.70
40702;DHT22;26387;50.114;8.662;2022-10-18T10:04:25;21.20;99.90
40702;DHT22;26387;50.114;8.662;2022-10-18T10:06:53;21.30;99.70
40702;DHT22;26387;50.114;8.662;2022-10-18T10:09:27;21.30;99.40
40702;DHT22;26387;50.114;8.662;2022-10-18T10:11:54;21.40;99.10
40702;DHT22;26387;50.114;8.662;2022-10-18T10:14:23;21.50;99.00
40702;DHT22;26387;50.114;8.662;2022-10-18T10:16:55;21.60;98.80
40702;DHT22;26387;50.114;8.662;2022-10-18T10:22:36;21.70;98.40
40702;DHT22;26387;50.114;8.662;2022-10-18T10:25:02;21.60;98.10
40702;DHT22;26387;50.114;8.662;2022-10-18T10:30:02;21.50;98.30
40702;DHT22;26387;50.114;8.662;2022-10-18T10:32:30;21.40;98.90
40702;DHT22;26387;50.114;8.662;2022-10-18T10:35:21;21.40;98.80
40702;DHT22;26387;50.114;8.662;2022-10-18T10:37:52;21.40;99.20
40702;DHT22;26387;50.114;8.662;2022-10-18T10:45:50;21.60;98.20
40702;DHT22;26387;50.114;8.662;2022-10-18T10:48:19;21.80;97.80
40702;DHT22;26387;50.114;8.662;2022-10-18T10:50:58;21.90;97.70
40702;DHT22;26387;50.114;8.662;2022-10-18T10:56:03;22.30;97.30
40702;DHT22;26387;50.114;8.662;2022-10-18T10:58:34;22.40;97.00
40702;DHT22;26387;50.114;8.662;2022-10-18T11:03:50;22.70;96.00
40702;DHT22;26387;50.114;8.662;2022-10-18T11:06:46;22.80;96.20
40702;DHT22;26387;50.114;8.662;2022-10-18T11:09:29;22.90;95.90
40702;DHT22;26387;50.114;8.662;2022-10-18T13:19:43;23.00;95.60
40702;DHT22;26387;50.114;8.662;2022-10-18T13:22:24;22.80;96.30
40702;DHT22;26387;50.114;8.662;2022-10-18T13:24:58;22.60;96.70
40702;DHT22;26387;50.114;8.662;2022-10-18T13:31:00;22.10;97.60
40702;DHT22;26387;50.114;8.662;2022-10-18T13:33:39;22.00;97.70
40702;DHT22;26387;50.114;8.662;2022-10-18T13:36:21;22.00;97.80
40702;DHT22;26387;50.114;8.662;2022-10-18T13:42:16;22.20;98.00
40702;DHT22;26387;50.114;8.662;2022-10-18T13:44:26;22.30;98.10
40702;DHT22;26387;50.114;8.662;2022-10-18T13:52:37;22.60;97.30
40702;DHT22;26387;50.114;8.662;2022-10-18T13:58:13;22.60;97.40
40702;DHT22;26387;50.114;8.662;2022-10-18T14:03:44;22.70;96.80
40702;DHT22;26387;50.114;8.662;2022-10-18T14:06:20;22.80;96.00
40702;DHT22;26387;50.114;8.662;2022-10-18T14:08:57;22.80;96.10
40702;DHT22;26387;50.114;8.662;2022-10-18T14:11:32;22.70;96.00
40702;DHT22;26387;50.114;8.662;2022-10-18T14:17:01;22.60;95.60
40702;DHT22;26387;50.114;8.662;2022-10-18T14:19:37;22.50;95.80
40702;DHT22;26387;50.114;8.662;2022-10-18T14:22:15;22.30;94.90
40702;DHT22;26387;50.114;8.662;2022-10-18T14:25:00;22.20;95.40
40702;DHT22;26387;50.114;8.662;2022-10-18T14:27:28;22.10;95.50
40702;DHT22;26387;50.114;8.662;2022-10-18T14:30:17;22.00;95.50
40702;DHT22;26387;50.114;8.662;2022-10-18T14:32:45;22.00;95.50
40702;DHT22;26387;50.114;8.662;2022-10-18T14:35:23;21.90;95.80
40702;DHT22;26387;50.114;8.662;2022-10-18T14:37:50;21.80;96.80
40702;DHT22;26387;50.114;8.662;2022-10-18T14:42:54;21.70;96.30
40702;DHT22;26387;50.114;8.662;2022-10-18T14:45:21;21.70;96.30
40702;DHT22;26387;50.114;8.662;2022-10-18T14:47:47;21.70;96.50
40702;DHT22;26387;50.114;8.662;2022-10-18T14:50:21;21.60;96.50
40702;DHT22;26387;50.114;8.662;2022-10-18T14:52:47;21.70;96.60
40702;DHT22;26387;50.114;8.662;2022-10-18T14:55:20;21.70;96.60
40702;DHT22;26387;50.114;8.662;2022-10-18T14:57:47;21.70;96.90
40702;DHT22;26387;50.114;8.662;2022-10-18T15:00:34;21.70;96.60
40702;DHT22;26387;50.114;8.662;2022-10-18T15:03:02;21.70;97.10
40702;DHT22;26387;50.114;8.662;2022-10-18T15:05:29;21.70;97.40
40702;DHT22;26387;50.114;8.662;2022-10-18T15:07:55;21.70;97.60
40702;DHT22;26387;50.114;8.662;2022-10-18T15:10:29;21.80;97.90
40702;DHT22;26387;50.114;8.662;2022-10-18T15:13:01;21.90;97.50
40702;DHT22;26387;50.114;8.662;2022-10-18T15:15:31;21.90;97.70
40702;DHT22;26387;50.114;8.662;2022-10-18T15:17:58;22.10;97.50
40702;DHT22;26387;50.114;8.662;2022-10-18T15:20:30;22.20;97.60
40702;DHT22;26387;50.114;8.662;2022-10-18T15:23:24;22.30;97.10
40702;DHT22;26387;50.114;8.662;2022-10-18T15:25:52;22.30;95.50
40702;DHT22;26387;50.114;8.662;2022-10-18T15:28:29;22.30;95.00
40702;DHT22;26387;50.114;8.662;2022-10-18T15:30:55;22.30;94.90
40702;DHT22;26387;50.114;8.662;2022-10-18T15:33:26;22.30;95.10
40702;DHT22;26387;50.114;8.662;2022-10-18T15:36:10;22.20;95.30
40702;DHT22;26387;50.114;8.662;2022-10-18T15:38:36;22.20;95.80
40702;DHT22;26387;50.114;8.662;2022-10-18T15:41:34;22.00;95.80
40702;DHT22;26387;50.114;8.662;2022-10-18T15:44:19;21.90;96.60
40702;DHT22;26387;50.114;8.662;2022-10-18T15:46:45;21.90;97.20
40702;DHT22;26387;50.114;8.662;2022-10-18T15:52:26;21.70;97.40
40702;DHT22;26387;50.114;8.662;2022-10-18T15:54:41;21.60;96.90
40702;DHT22;26387;50.114;8.662;2022-10-18T15:57:08;21.60;97.30
40702;DHT22;26387;50.114;8.662;2022-10-18T15:59:34;21.60;97.60
40702;DHT22;26387;50.114;8.662;2022-10-18T16:02:00;21.60;97.60
40702;DHT22;26387;50.114;8.662;2022-10-18T16:04:28;21.50;97.70
40702;DHT22;26387;50.114;8.662;2022-10-18T16:06:55;21.50;98.00
40702;DHT22;26387;50.114;8.662;2022-10-18T16:09:23;21.50;97.90
40702;DHT22;26387;50.114;8.662;2022-10-18T16:11:48;21.40;98.10
40702;DHT22;26387;50.114;8.662;2022-10-18T16:14:16;21.30;98.50
40702;DHT22;26387;50.114;8.662;2022-10-18T16:16:42;21.30;98.90
40702;DHT22;26387;50.114;8.662;2022-10-18T16:19:12;21.20;99.10
40702;DHT22;26387;50.114;8.662;2022-10-18T16:21:40;21.10;99.00
40702;DHT22;26387;50.114;8.662;2022-10-18T16:24:06;21.00;98.80
40702;DHT22;26387;50.114;8.662;2022-10-18T16:26:32;20.90;99.20
40702;DHT22;26387;50.114;8.662;2022-10-18T16:28:58;20.80;99.60
40702;DHT22;26387;50.114;8.662;2022-10-18T16:31:26;20.80;99.60
40702;DHT22;26387;50.114;8.662;2022-10-18T16:33:53;20.70;99.80
40702;DHT22;26387;50.114;8.662;2022-10-18T16:36:21;20.60;99.90
40702;DHT22;26387;50.114;8.662;2022-10-18T16:38:48;20.50;99.90
40702;DHT22;26387;50.114;8.662;2022-10-18T16:41:14;20.40;99.90
40702;DHT22;26387;50.114;8.662;2022-10-18T16:43:41;20.30;99.90
40702;DHT22;26387;50.114;8.662;2022-10-18T16:46:14;20.20;99.90
40702;DHT22;26387;50.114;8.662;2022-10-18T16:48:41;20.20;99.90
40702;DHT22;26387;50.114;8.662;2022-10-18T16:51:09;20.10;99.90
40702;DHT22;26387;50.114;8.662;2022-10-18T16:53:34;20.00;99.90
40702;DHT22;26387;50.114;8.662;2022-10-18T16:56:02;20.00;99.90
40702;DHT22;26387;50.114;8.662;2022-10-18T16:58:29;19.90;99.90
40702;DHT22;26387;50.114;8.662;2022-10-18T17:00:56;19.80;99.90
40702;DHT22;26387;50.114;8.662;2022-10-18T17:03:22;19.70;99.90
40702;DHT22;26387;50.114;8.662;2022-10-18T17:05:49;19.70;99.90
40702;DHT22;26387;50.114;8.662;2022-10-18T17:08:24;19.70;99.90
40702;DHT22;26387;50.114;8.662;2022-10-18T17:10:52;19.70;99.90
40702;DHT22;26387;50.114;8.662;2022-10-18T17:13:18;19.70;99.90
40702;DHT22;26387;50.114;8.662;2022-10-18T17:15:44;19.70;99.90
40702;DHT22;26387;50.114;8.662;2022-10-18T17:18:16;19.60;99.90
40702;DHT22;26387;50.114;8.662;2022-10-18T17:20:43;19.50;99.90
40702;DHT22;26387;50.114;8.662;2022-10-18T17:23:09;19.50;99.90
40702;DHT22;26387;50.114;8.662;2022-10-18T17:25:36;19.50;99.90
40702;DHT22;26387;50.114;8.662;2022-10-18T17:28:03;19.50;99.90
40702;DHT22;26387;50.114;8.662;2022-10-18T17:30:29;19.40;99.90
40702;DHT22;26387;50.114;8.662;2022-10-18T17:32:55;19.40;99.90
40702;DHT22;26387;50.114;8.662;2022-10-18T17:35:20;19.40;99.90
40702;DHT22;26387;50.114;8.662;2022-10-18T17:37:47;19.30;99.90
40702;DHT22;26387;50.114;8.662;2022-10-18T17:40:13;19.30;99.90
40702;DHT22;26387;50.114;8.662;2022-10-18T17:42:38;19.30;99.90
40702;DHT22;26387;50.114;8.662;2022-10-18T17:45:04;19.30;99.90
40702;DHT22;26387;50.114;8.662;2022-10-18T17:47:30;19.20;99.90
40702;DHT22;26387;50.114;8.662;2022-10-18T17:49:56;19.20;99.90
40702;DHT22;26387;50.114;8.662;2022-10-18T17:52:21;19.20;99.90
40702;DHT22;26387;50.114;8.662;2022-10-18T17:54:47;19.20;99.90
40702;DHT22;26387;50.114;8.662;2022-10-18T17:57:12;19.10;99.90
40702;DHT22;26387;50.114;8.662;2022-10-18T17:59:38;19.20;99.90
40702;DHT22;26387;50.114;8.662;2022-10-18T18:02:04;19.10;99.90
40702;DHT22;26387;50.114;8.662;2022-10-18T18:04:29;19.10;99.90
40702;DHT22;26387;50.114;8.662;2022-10-18T18:06:55;19.00;99.90
40702;DHT22;26387;50.114;8.662;2022-10-18T18:09:21;19.00;99.90
40702;DHT22;26387;50.114;8.662;2022-10-18T18:11:47;19.00;99.90
40702;DHT22;26387;50.114;8.662;2022-10-18T18:14:13;19.00;99.90
40702;DHT22;26387;50.114;8.662;2022-10-18T18:16:43;19.00;99.90
40702;DHT22;26387;50.114;8.662;2022-10-18T18:19:10;19.00;99.90
40702;DHT22;26387;50.114;8.662;2022-10-18T18:21:39;19.00;99.90
40702;DHT22;26387;50.114;8.662;2022-10-18T18:24:05;19.00;99.90
40702;DHT22;26387;50.114;8.662;2022-10-18T18:26:32;19.00;99.90
40702;DHT22;26387;50.114;8.662;2022-10-18T18:28:58;19.00;99.90
40702;DHT22;26387;50.114;8.662;2022-10-18T18:31:24;19.10;99.90
40702;DHT22;26387;50.114;8.662;2022-10-18T18:33:51;19.10;99.90
40702;DHT22;26387;50.114;8.662;2022-10-18T18:36:17;19.10;99.90
40702;DHT22;26387;50.114;8.662;2022-10-18T18:38:43;19.10;99.90
40702;DHT22;26387;50.114;8.662;2022-10-18T18:41:15;19.10;99.90
40702;DHT22;26387;50.114;8.662;2022-10-18T18:43:44;19.10;99.90
40702;DHT22;26387;50.114;8.662;2022-10-18T18:46:10;19.00;99.90
40702;DHT22;26387;50.114;8.662;2022-10-18T18:48:37;18.90;99.90
40702;DHT22;26387;50.114;8.662;2022-10-18T18:51:04;18.90;99.90
40702;DHT22;26387;50.114;8.662;2022-10-18T18:53:32;18.90;99.90
40702;DHT22;26387;50.114;8.662;2022-10-18T18:56:06;18.90;99.90
40702;DHT22;26387;50.114;8.662;2022-10-18T18:58:33;18.80;99.90
40702;DHT22;26387;50.114;8.662;2022-10-18T19:01:05;18.80;99.90
40702;DHT22;26387;50.114;8.662;2022-10-18T19:03:31;18.70;99.90
40702;DHT22;26387;50.114;8.662;2022-10-18T19:06:07;18.70;99.90
40702;DHT22;26387;50.114;8.662;2022-10-18T19:08:35;18.70;99.90
40702;DHT22;26387;50.114;8.662;2022-10-18T19:11:01;18.70;99.90
40702;DHT22;26387;50.114;8.662;2022-10-18T19:13:27;18.60;99.90
40702;DHT22;26387;50.114;8.662;2022-10-18T19:16:18;18.50;99.90